Rizokarpason, Cyprus
Current Conditions -  °F | °C
As of 2:50 PM on Monday 22 Dec 2014 (Local Time) from LCEN Reporting Station
Broken Clouds Broken Clouds  
Wind Chill: 57°   Ceiling: 8000
Heat Index: 57°   Visibility: 6mi
Dew Point: 45°   Wind: 10mph
Humidity: 63%   Direction: 360°N
Pressure: 29.94"   Gusts: NA
Location:  35.58°N, 34.4°E
Report Text: LCEN 221150Z 36009KT 9999 FEW025TCU SCT030 BKN080 14/07 Q1014 NOSIG
Loading
Personal Weather Stations






























Interactive Weather Map New forecast layout! Learn more

10-Day Weather Forecast

Advertisements
Track Severe Weather on mobile